createdAt,value
2018-07-01T00:00:21.730Z,14.23
2018-07-01T00:01:21.658Z,14.09
2018-07-01T00:03:14.431Z,14.17
2018-07-01T00:04:14.365Z,14.16
2018-07-01T00:06:07.151Z,13.91
2018-07-01T00:07:07.082Z,13.75
2018-07-01T00:08:59.884Z,13.94
2018-07-01T00:09:59.803Z,14.05
2018-07-01T00:11:52.571Z,14.21
2018-07-01T00:12:52.511Z,14.26
2018-07-01T00:14:45.284Z,14.21
2018-07-01T00:15:45.215Z,14.24
2018-07-01T00:17:37.969Z,14.23
2018-07-01T00:18:37.908Z,14.23
2018-07-01T00:20:30.697Z,14.29
2018-07-01T00:21:30.629Z,14.35
2018-07-01T00:23:23.393Z,14.31
2018-07-01T00:24:23.329Z,14.42
2018-07-01T00:26:16.117Z,14.42
2018-07-01T00:27:16.041Z,14.44
2018-07-01T00:29:08.823Z,14.45
2018-07-01T00:30:08.746Z,14.34
2018-07-01T00:32:01.526Z,14.19
2018-07-01T00:33:01.462Z,14.08
2018-07-01T00:34:54.241Z,13.84
2018-07-01T00:35:54.169Z,13.65
2018-07-01T00:37:46.931Z,13.69
2018-07-01T00:38:46.871Z,13.75
2018-07-01T00:40:39.668Z,13.55
2018-07-01T00:41:39.580Z,13.51
2018-07-01T00:43:32.354Z,13.57
2018-07-01T00:44:32.292Z,13.53
2018-07-01T00:46:25.071Z,13.54
2018-07-01T00:47:24.987Z,13.54
2018-07-01T00:49:17.767Z,13.61
2018-07-01T00:50:17.703Z,13.46
2018-07-01T00:52:10.494Z,13.71
2018-07-01T00:53:10.420Z,13.68
2018-07-01T00:55:03.211Z,13.65
2018-07-01T00:56:03.133Z,13.55
2018-07-01T00:57:55.908Z,13.47
2018-07-01T00:58:55.841Z,13.27
2018-07-01T01:00:48.620Z,13.36
2018-07-01T01:01:48.538Z,13.48
2018-07-01T01:03:41.319Z,13.35
2018-07-01T01:04:41.261Z,13.35
2018-07-01T01:06:34.028Z,13.51
2018-07-01T01:07:33.954Z,13.53
2018-07-01T01:09:26.728Z,13.71
2018-07-01T01:10:26.657Z,13.71
2018-07-01T01:12:19.445Z,13.62
2018-07-01T01:13:19.367Z,13.53
2018-07-01T01:15:12.159Z,13.29
2018-07-01T01:16:12.077Z,13.28
2018-07-01T01:18:04.842Z,13.21
2018-07-01T01:19:04.783Z,13.17
2018-07-01T01:20:57.568Z,13.14
2018-07-01T01:21:57.498Z,13.01
2018-07-01T01:23:50.276Z,12.91
2018-07-01T01:24:50.216Z,12.87
2018-07-01T01:26:43.025Z,12.99
2018-07-01T01:27:42.954Z,12.91
2018-07-01T01:29:35.711Z,13.03
2018-07-01T01:30:35.651Z,13.01
2018-07-01T01:32:28.426Z,13.04
2018-07-01T01:33:28.353Z,13.04
2018-07-01T01:35:21.174Z,12.91
2018-07-01T01:36:21.081Z,12.87
2018-07-01T01:38:13.838Z,12.76
2018-07-01T01:39:13.778Z,12.66
2018-07-01T01:41:06.546Z,12.44
2018-07-01T01:42:06.479Z,12.41
2018-07-01T01:43:59.249Z,12.26
2018-07-01T01:44:59.183Z,12.21
2018-07-01T01:46:51.989Z,12.25
2018-07-01T01:47:51.912Z,12.21
2018-07-01T01:49:44.672Z,12.13
2018-07-01T01:50:44.608Z,12.04
2018-07-01T01:52:37.374Z,12.04
2018-07-01T01:53:37.302Z,12.05
2018-07-01T01:55:30.069Z,12.13
2018-07-01T01:56:30.008Z,12.19
2018-07-01T01:58:22.788Z,12.40
2018-07-01T01:59:22.710Z,12.36
2018-07-01T02:01:15.493Z,12.37
2018-07-01T02:02:15.432Z,12.46
2018-07-01T02:04:08.193Z,12.15
2018-07-01T02:05:08.119Z,12.16
2018-07-01T02:07:00.900Z,12.01
2018-07-01T02:08:00.826Z,11.98
2018-07-01T02:09:53.591Z,11.79
2018-07-01T02:10:53.553Z,11.72
2018-07-01T02:12:46.297Z,11.59
2018-07-01T02:13:46.226Z,11.44
2018-07-01T02:15:38.984Z,11.39
2018-07-01T02:16:38.920Z,11.31
2018-07-01T02:18:31.705Z,11.19
2018-07-01T02:19:31.622Z,11.13
2018-07-01T02:21:24.401Z,11.05
2018-07-01T02:22:24.332Z,10.98
2018-07-01T02:24:17.110Z,10.86
2018-07-01T02:25:17.032Z,10.80
2018-07-01T02:27:09.803Z,10.69
2018-07-01T02:28:09.728Z,10.63
2018-07-01T02:30:02.517Z,10.76
2018-07-01T02:31:02.441Z,10.72
2018-07-01T02:32:55.218Z,10.91
2018-07-01T02:33:55.139Z,10.93
2018-07-01T02:35:47.916Z,10.91
2018-07-01T02:36:47.843Z,10.98
2018-07-01T02:38:40.617Z,10.95
2018-07-01T02:39:40.551Z,10.83
2018-07-01T02:41:33.317Z,10.81
2018-07-01T02:42:33.267Z,10.87
2018-07-01T02:44:26.035Z,10.83
2018-07-01T02:45:25.955Z,10.84
2018-07-01T02:47:18.732Z,10.90
2018-07-01T02:48:18.669Z,10.86
2018-07-01T02:50:11.448Z,10.99
2018-07-01T02:51:11.380Z,11.11
2018-07-01T02:53:04.144Z,11.30
2018-07-01T02:54:04.068Z,11.33
2018-07-01T02:55:56.847Z,11.57
2018-07-01T02:56:56.774Z,11.63
2018-07-01T02:58:49.567Z,11.62
2018-07-01T02:59:49.478Z,11.64
2018-07-01T03:01:42.255Z,11.59
2018-07-01T03:02:42.211Z,11.60
2018-07-01T03:04:35.017Z,11.64
2018-07-01T03:05:34.905Z,11.53
2018-07-01T03:07:27.683Z,11.59
2018-07-01T03:08:27.615Z,11.56
2018-07-01T03:10:20.411Z,11.49
2018-07-01T03:11:20.315Z,11.45
2018-07-01T03:13:13.113Z,11.54
2018-07-01T03:14:13.027Z,11.44
2018-07-01T03:16:05.792Z,11.41
2018-07-01T03:17:05.730Z,11.28
2018-07-01T03:18:58.502Z,11.23
2018-07-01T03:19:58.430Z,11.08
2018-07-01T03:21:51.206Z,11.02
2018-07-01T03:22:51.141Z,11.12
2018-07-01T03:24:43.917Z,10.98
2018-07-01T03:25:43.834Z,10.94
2018-07-01T03:27:36.602Z,10.98
2018-07-01T03:28:36.536Z,11.13
2018-07-01T03:30:29.322Z,11.38
2018-07-01T03:31:29.241Z,11.56
2018-07-01T03:33:22.016Z,11.72
2018-07-01T03:34:21.949Z,11.57
2018-07-01T03:36:14.734Z,11.60
2018-07-01T03:37:14.659Z,11.67
2018-07-01T03:39:07.432Z,11.69
2018-07-01T03:40:07.357Z,11.49
2018-07-01T03:42:00.128Z,11.46
2018-07-01T03:43:00.070Z,11.44
2018-07-01T03:44:52.842Z,11.44
2018-07-01T03:45:52.763Z,11.46
2018-07-01T03:47:45.527Z,11.72
2018-07-01T03:48:45.459Z,11.72
2018-07-01T03:50:38.257Z,11.84
2018-07-01T03:51:38.166Z,11.82
2018-07-01T03:53:30.984Z,12.01
2018-07-01T03:54:30.912Z,12.11
2018-07-01T03:56:23.704Z,12.23
2018-07-01T03:57:23.613Z,12.21
2018-07-01T03:59:16.394Z,12.21
2018-07-01T04:00:16.320Z,12.22
2018-07-01T04:02:09.108Z,12.23
2018-07-01T04:03:09.037Z,12.40
2018-07-01T04:05:01.815Z,12.29
2018-07-01T04:06:01.741Z,12.22
2018-07-01T04:07:54.520Z,12.30
2018-07-01T04:08:54.511Z,12.21
2018-07-01T04:10:47.235Z,12.13
2018-07-01T04:11:47.167Z,12.08
2018-07-01T04:13:39.934Z,12.12
2018-07-01T04:14:39.882Z,12.15
2018-07-01T04:16:32.685Z,12.05
2018-07-01T04:17:32.575Z,12.25
2018-07-01T04:19:25.401Z,12.34
2018-07-01T04:20:25.282Z,12.40
2018-07-01T04:22:18.109Z,12.51
2018-07-01T04:23:17.977Z,12.56
2018-07-01T04:25:10.768Z,12.44
2018-07-01T04:26:10.712Z,12.38
2018-07-01T04:28:03.437Z,12.63
2018-07-01T04:29:03.381Z,12.63
2018-07-01T04:30:56.362Z,12.80
2018-07-01T04:31:56.090Z,12.76
2018-07-01T04:33:49.456Z,12.95
2018-07-01T04:34:48.784Z,13.07
2018-07-01T04:36:41.572Z,13.21
2018-07-01T04:37:41.687Z,13.32
2018-07-01T04:39:34.265Z,13.39
2018-07-01T04:40:34.202Z,13.54
2018-07-01T04:42:26.993Z,13.71
2018-07-01T04:43:26.935Z,13.71
2018-07-01T04:45:19.715Z,13.81
2018-07-01T04:46:19.618Z,13.96
2018-07-01T04:48:12.463Z,14.06
2018-07-01T04:49:12.348Z,14.11
2018-07-01T04:51:05.308Z,14.49
2018-07-01T04:52:05.237Z,15.05
2018-07-01T04:53:58.017Z,17.03
2018-07-01T04:54:58.056Z,17.94
2018-07-01T04:56:50.919Z,19.80
2018-07-01T04:57:50.845Z,20.57
2018-07-01T04:59:43.630Z,21.66
2018-07-01T05:00:43.546Z,21.93
2018-07-01T05:02:36.344Z,22.52
2018-07-01T05:03:36.257Z,22.75
2018-07-01T05:05:29.022Z,23.14
2018-07-01T05:06:28.951Z,23.47
2018-07-01T05:08:21.723Z,23.68
2018-07-01T05:09:21.651Z,23.96
2018-07-01T05:11:14.450Z,24.14
2018-07-01T05:12:14.355Z,24.44
2018-07-01T05:14:07.145Z,23.82
2018-07-01T05:15:07.066Z,24.05
2018-07-01T05:16:59.906Z,24.48
2018-07-01T05:17:59.779Z,24.75
2018-07-01T05:19:52.563Z,24.99
2018-07-01T05:20:52.489Z,25.17
2018-07-01T05:22:45.323Z,25.26
2018-07-01T05:23:45.218Z,25.31
2018-07-01T05:25:37.980Z,24.90
2018-07-01T05:26:37.920Z,25.08
2018-07-01T05:28:30.713Z,24.87
2018-07-01T05:29:30.644Z,25.02
2018-07-01T05:31:23.459Z,25.26
2018-07-01T05:32:23.362Z,25.38
2018-07-01T05:34:16.135Z,24.99
2018-07-01T05:35:16.077Z,24.11
2018-07-01T05:37:08.872Z,24.77
2018-07-01T05:38:08.792Z,25.02
2018-07-01T05:40:01.576Z,25.35
2018-07-01T05:41:01.513Z,25.42
2018-07-01T05:42:54.296Z,25.83
2018-07-01T05:43:54.227Z,26.00
2018-07-01T05:45:46.998Z,26.75
2018-07-01T05:46:46.941Z,26.94
2018-07-01T05:48:39.729Z,26.97
2018-07-01T05:49:39.695Z,26.91
2018-07-01T05:51:32.463Z,26.76
2018-07-01T05:52:32.377Z,26.57
2018-07-01T05:54:25.177Z,25.97
2018-07-01T05:55:25.104Z,26.32
2018-07-01T05:57:17.899Z,26.75
2018-07-01T05:58:17.825Z,26.81
2018-07-01T06:00:10.609Z,26.42
2018-07-01T06:01:10.551Z,25.71
2018-07-01T06:03:03.344Z,25.96
2018-07-01T06:04:03.271Z,26.12
2018-07-01T06:05:56.060Z,26.51
2018-07-01T06:06:55.998Z,26.81
2018-07-01T06:08:48.907Z,26.69
2018-07-01T06:09:48.723Z,25.67
2018-07-01T06:11:41.507Z,25.12
2018-07-01T06:12:41.451Z,25.39
2018-07-01T06:14:34.259Z,25.90
2018-07-01T06:15:34.182Z,26.35
2018-07-01T06:17:26.966Z,25.72
2018-07-01T06:18:26.900Z,26.28
2018-07-01T06:20:19.703Z,26.81
2018-07-01T06:21:19.699Z,26.87
2018-07-01T06:23:12.433Z,26.24
2018-07-01T06:24:12.368Z,26.29
2018-07-01T06:26:05.139Z,25.72
2018-07-01T06:27:05.085Z,25.75
2018-07-01T06:28:57.876Z,26.39
2018-07-01T06:29:57.810Z,26.90
2018-07-01T06:31:50.592Z,26.83
2018-07-01T06:32:50.591Z,26.73
2018-07-01T06:34:43.328Z,27.27
2018-07-01T06:35:43.258Z,27.31
2018-07-01T06:37:36.042Z,25.83
2018-07-01T06:38:35.977Z,24.94
2018-07-01T06:40:28.800Z,25.89
2018-07-01T06:41:28.732Z,26.27
2018-07-01T06:43:21.526Z,26.60
2018-07-01T06:44:21.453Z,26.96
2018-07-01T06:46:14.240Z,25.34
2018-07-01T06:47:14.182Z,24.52
2018-07-01T06:49:06.995Z,23.64
2018-07-01T06:50:06.901Z,22.89
2018-07-01T06:51:59.684Z,22.33
2018-07-01T06:52:59.627Z,22.23
2018-07-01T06:54:52.424Z,22.38
2018-07-01T06:55:52.345Z,23.32
2018-07-01T06:57:45.155Z,22.84
2018-07-01T06:58:45.102Z,22.19
2018-07-01T07:00:37.906Z,22.76
2018-07-01T07:01:37.839Z,23.09
2018-07-01T07:03:30.617Z,22.39
2018-07-01T07:04:30.541Z,22.52
2018-07-01T07:06:23.337Z,24.19
2018-07-01T07:07:23.268Z,24.79
2018-07-01T07:09:16.069Z,25.81
2018-07-01T07:10:15.997Z,26.41
2018-07-01T07:12:08.769Z,26.88
2018-07-01T07:13:08.719Z,27.24
2018-07-01T07:15:01.515Z,27.88
2018-07-01T07:16:01.448Z,27.38
2018-07-01T07:17:54.216Z,27.90
2018-07-01T07:18:54.156Z,27.90
2018-07-01T07:20:46.951Z,28.18
2018-07-01T07:21:46.880Z,27.96
2018-07-01T07:23:39.699Z,26.12
2018-07-01T07:24:39.605Z,24.99
2018-07-01T07:26:32.393Z,25.71
2018-07-01T07:27:32.330Z,26.27
2018-07-01T07:29:25.141Z,25.82
2018-07-01T07:30:25.074Z,24.82
2018-07-01T07:32:17.866Z,23.11
2018-07-01T07:33:17.803Z,22.56
2018-07-01T07:35:10.603Z,22.72
2018-07-01T07:36:10.530Z,22.54
2018-07-01T07:38:03.298Z,24.34
2018-07-01T07:39:03.244Z,25.02
2018-07-01T07:40:56.025Z,26.06
2018-07-01T07:41:55.953Z,26.44
2018-07-01T07:43:48.731Z,27.49
2018-07-01T07:44:48.678Z,27.55
2018-07-01T07:46:41.488Z,27.09
2018-07-01T07:47:41.401Z,27.01
2018-07-01T07:49:34.196Z,27.35
2018-07-01T07:50:34.120Z,28.17
2018-07-01T07:52:26.905Z,28.36
2018-07-01T07:53:26.849Z,28.09
2018-07-01T07:55:19.636Z,28.30
2018-07-01T07:56:19.563Z,28.09
2018-07-01T07:58:12.356Z,28.50
2018-07-01T07:59:12.299Z,28.91
2018-07-01T08:01:05.084Z,29.63
2018-07-01T08:02:05.072Z,29.73
2018-07-01T08:03:57.810Z,30.04
2018-07-01T08:04:57.756Z,29.26
2018-07-01T08:06:50.613Z,29.03
2018-07-01T08:07:50.548Z,28.80
2018-07-01T08:09:43.390Z,28.95
2018-07-01T08:10:43.268Z,28.98
2018-07-01T08:12:36.079Z,29.60
2018-07-01T08:13:36.027Z,30.00
2018-07-01T08:15:28.821Z,29.25
2018-07-01T08:16:28.749Z,29.47
2018-07-01T08:18:21.524Z,28.02
2018-07-01T08:19:21.472Z,28.14
2018-07-01T08:21:14.268Z,28.74
2018-07-01T08:22:14.199Z,28.42
2018-07-01T08:24:06.976Z,27.69
2018-07-01T08:25:06.918Z,27.68
2018-07-01T08:26:59.706Z,27.39
2018-07-01T08:27:59.636Z,26.28
2018-07-01T08:29:52.420Z,25.48
2018-07-01T08:30:52.376Z,25.11
2018-07-01T08:32:45.149Z,26.09
2018-07-01T08:33:45.078Z,26.65
2018-07-01T08:35:37.886Z,24.94
2018-07-01T08:36:37.822Z,24.53
2018-07-01T08:38:30.581Z,23.87
2018-07-01T08:39:30.532Z,23.50
2018-07-01T08:41:23.344Z,23.71
2018-07-01T08:42:23.278Z,24.77
2018-07-01T08:44:16.057Z,26.23
2018-07-01T08:45:15.998Z,26.59
2018-07-01T08:47:08.785Z,27.39
2018-07-01T08:48:08.718Z,27.91
2018-07-01T08:50:01.501Z,28.42
2018-07-01T08:51:01.438Z,28.74
2018-07-01T08:52:54.223Z,28.51
2018-07-01T08:53:54.152Z,28.17
2018-07-01T08:55:46.949Z,28.28
2018-07-01T08:56:46.883Z,28.60
2018-07-01T08:58:39.665Z,28.11
2018-07-01T08:59:39.608Z,28.11
2018-07-01T09:01:32.405Z,27.74
2018-07-01T09:02:32.340Z,27.52
2018-07-01T09:04:25.152Z,27.84
2018-07-01T09:05:25.063Z,28.02
2018-07-01T09:07:17.853Z,28.42
2018-07-01T09:08:17.780Z,27.34
2018-07-01T09:10:10.569Z,26.78
2018-07-01T09:11:10.503Z,27.33
2018-07-01T09:13:03.302Z,27.38
2018-07-01T09:14:03.228Z,26.11
2018-07-01T09:15:56.019Z,24.80
2018-07-01T09:16:55.972Z,25.41
2018-07-01T09:18:48.747Z,25.34
2018-07-01T09:19:48.677Z,24.87
2018-07-01T09:21:41.480Z,24.37
2018-07-01T09:22:41.420Z,25.04
2018-07-01T09:24:34.201Z,25.76
2018-07-01T09:25:34.138Z,26.44
2018-07-01T09:27:26.965Z,27.40
2018-07-01T09:28:26.868Z,27.72
2018-07-01T09:30:19.657Z,28.40
2018-07-01T09:31:19.606Z,28.65
2018-07-01T09:33:12.400Z,28.73
2018-07-01T09:34:12.330Z,27.80
2018-07-01T09:36:05.117Z,25.75
2018-07-01T09:37:05.054Z,26.16
2018-07-01T09:38:57.837Z,25.04
2018-07-01T09:39:57.775Z,25.22
2018-07-01T09:41:50.585Z,25.71
2018-07-01T09:42:50.504Z,25.24
2018-07-01T09:44:43.291Z,26.01
2018-07-01T09:45:43.239Z,26.27
2018-07-01T09:47:36.030Z,27.02
2018-07-01T09:48:35.961Z,27.18
2018-07-01T09:50:28.907Z,27.43
2018-07-01T09:51:28.683Z,27.65
2018-07-01T09:53:21.477Z,27.25
2018-07-01T09:54:21.396Z,27.72
2018-07-01T09:56:14.177Z,27.69
2018-07-01T09:57:14.120Z,26.83
2018-07-01T09:59:06.925Z,26.17
2018-07-01T10:00:06.854Z,26.79
2018-07-01T10:01:59.663Z,26.64
2018-07-01T10:02:59.591Z,26.54
2018-07-01T10:04:52.380Z,26.31
2018-07-01T10:05:52.355Z,25.91
2018-07-01T10:07:45.109Z,24.48
2018-07-01T10:08:45.044Z,24.33
2018-07-01T10:10:37.823Z,24.31
2018-07-01T10:11:37.767Z,24.04
2018-07-01T10:13:30.551Z,25.14
2018-07-01T10:14:30.485Z,24.51
2018-07-01T10:16:23.274Z,25.11
2018-07-01T10:17:23.214Z,25.74
2018-07-01T10:19:15.999Z,26.20
2018-07-01T10:20:15.934Z,26.11
2018-07-01T10:22:08.728Z,26.56
2018-07-01T10:23:08.678Z,26.41
2018-07-01T10:25:01.488Z,26.64
2018-07-01T10:26:01.390Z,26.68
2018-07-01T10:27:54.189Z,26.31
2018-07-01T10:28:54.114Z,26.51
2018-07-01T10:30:46.898Z,26.11
2018-07-01T10:31:46.842Z,25.83
2018-07-01T10:33:39.648Z,25.51
2018-07-01T10:34:39.580Z,25.98
2018-07-01T10:36:32.368Z,26.32
2018-07-01T10:37:32.310Z,26.38
2018-07-01T10:39:25.103Z,26.81
2018-07-01T10:40:25.035Z,27.01
2018-07-01T10:42:17.861Z,27.23
2018-07-01T10:43:17.804Z,27.08
2018-07-01T10:45:10.642Z,26.91
2018-07-01T10:46:10.604Z,27.38
2018-07-01T10:48:03.377Z,27.90
2018-07-01T10:49:03.298Z,28.01
2018-07-01T10:50:56.138Z,27.74
2018-07-01T10:51:56.044Z,27.33
2018-07-01T10:53:48.852Z,26.32
2018-07-01T10:54:48.777Z,26.09
2018-07-01T10:56:41.603Z,25.69
2018-07-01T10:57:41.593Z,26.01
2018-07-01T10:59:34.320Z,25.75
2018-07-01T11:00:34.268Z,25.98
2018-07-01T11:02:27.087Z,26.19
2018-07-01T11:03:27.017Z,26.32
2018-07-01T11:05:19.863Z,26.00
2018-07-01T11:06:19.938Z,25.96
2018-07-01T11:08:12.585Z,25.79
2018-07-01T11:09:12.510Z,25.39
2018-07-01T11:11:05.335Z,25.04
2018-07-01T11:12:05.249Z,24.92
2018-07-01T11:13:58.047Z,24.48
2018-07-01T11:14:57.974Z,24.15
2018-07-01T11:16:50.778Z,23.84
2018-07-01T11:17:50.720Z,23.62
2018-07-01T11:19:43.608Z,24.30
2018-07-01T11:20:43.486Z,24.55
2018-07-01T11:22:36.297Z,25.24
2018-07-01T11:23:36.204Z,25.42
2018-07-01T11:25:29.054Z,25.30
2018-07-01T11:26:28.998Z,25.20
2018-07-01T11:28:21.775Z,24.64
2018-07-01T11:29:21.702Z,24.67
2018-07-01T11:31:14.500Z,24.84
2018-07-01T11:32:14.431Z,24.64
2018-07-01T11:34:07.213Z,24.06
2018-07-01T11:35:07.156Z,24.00
2018-07-01T11:36:59.926Z,24.05
2018-07-01T11:37:59.869Z,23.74
2018-07-01T11:39:52.653Z,23.86
2018-07-01T11:40:52.578Z,24.27
2018-07-01T11:42:45.378Z,23.97
2018-07-01T11:43:45.316Z,23.84
2018-07-01T11:45:38.168Z,23.84
2018-07-01T11:46:38.041Z,23.79
2018-07-01T11:48:30.837Z,23.47
2018-07-01T11:49:30.775Z,23.23
2018-07-01T11:51:23.583Z,23.41
2018-07-01T11:52:23.507Z,23.75
2018-07-01T11:54:16.292Z,24.04
2018-07-01T11:55:16.253Z,24.21
2018-07-01T11:57:08.999Z,24.39
2018-07-01T11:58:08.964Z,24.46
2018-07-01T12:00:01.824Z,24.45
2018-07-01T12:01:01.669Z,24.66
2018-07-01T12:02:54.485Z,24.60
2018-07-01T12:03:54.412Z,24.15
2018-07-01T12:05:47.189Z,24.34
2018-07-01T12:06:47.116Z,24.11
2018-07-01T12:08:39.912Z,23.68
2018-07-01T12:09:39.842Z,23.69
2018-07-01T12:11:32.652Z,23.32
2018-07-01T12:12:32.587Z,23.49
2018-07-01T12:14:25.407Z,23.97
2018-07-01T12:15:25.345Z,24.11
2018-07-01T12:17:18.139Z,24.19
2018-07-01T12:18:18.074Z,24.19
2018-07-01T12:20:10.898Z,24.04
2018-07-01T12:21:10.829Z,24.02
2018-07-01T12:23:03.618Z,24.12
2018-07-01T12:24:03.548Z,24.05
2018-07-01T12:25:56.336Z,23.96
2018-07-01T12:26:56.270Z,24.00
2018-07-01T12:28:49.085Z,24.08
2018-07-01T12:29:48.993Z,24.23
2018-07-01T12:31:41.781Z,24.08
2018-07-01T12:32:41.715Z,24.08
2018-07-01T12:34:34.523Z,24.12
2018-07-01T12:35:34.457Z,24.29
2018-07-01T12:37:27.246Z,24.15
2018-07-01T12:38:27.171Z,24.11
2018-07-01T12:40:20.163Z,24.08
2018-07-01T12:41:20.098Z,24.11
2018-07-01T12:43:12.887Z,24.26
2018-07-01T12:44:12.830Z,24.49
2018-07-01T12:46:05.632Z,24.16
2018-07-01T12:47:05.557Z,23.94
2018-07-01T12:48:58.339Z,23.93
2018-07-01T12:49:58.274Z,23.78
2018-07-01T12:51:51.081Z,23.63
2018-07-01T12:52:51.015Z,23.63
2018-07-01T12:54:43.900Z,23.60
2018-07-01T12:55:43.795Z,23.62
2018-07-01T12:57:36.617Z,23.79
2018-07-01T12:58:36.547Z,24.00
2018-07-01T13:00:29.317Z,24.05
2018-07-01T13:01:29.243Z,23.87
2018-07-01T13:03:22.034Z,23.89
2018-07-01T13:04:21.969Z,23.79
2018-07-01T13:06:14.765Z,23.75
2018-07-01T13:07:14.695Z,23.68
2018-07-01T13:09:07.490Z,23.63
2018-07-01T13:10:07.414Z,23.64
2018-07-01T13:12:00.334Z,23.67
2018-07-01T13:13:00.168Z,23.44
2018-07-01T13:14:52.983Z,23.29
2018-07-01T13:15:52.976Z,23.23
2018-07-01T13:17:45.837Z,23.22
2018-07-01T13:18:45.756Z,23.23
2018-07-01T13:20:38.519Z,23.38
2018-07-01T13:21:38.466Z,23.68
2018-07-01T13:23:31.241Z,23.97
2018-07-01T13:24:31.167Z,24.18
2018-07-01T13:26:23.959Z,24.05
2018-07-01T13:27:23.891Z,24.06
2018-07-01T13:29:16.684Z,23.84
2018-07-01T13:30:16.808Z,23.72
2018-07-01T13:32:09.415Z,23.37
2018-07-01T13:33:09.345Z,23.35
2018-07-01T13:35:02.161Z,23.25
2018-07-01T13:36:02.100Z,23.14
2018-07-01T13:37:54.881Z,22.96
2018-07-01T13:38:54.806Z,22.88
2018-07-01T13:40:47.583Z,22.97
2018-07-01T13:41:47.538Z,22.94
2018-07-01T13:43:40.545Z,22.41
2018-07-01T13:44:40.468Z,22.36
2018-07-01T13:46:33.782Z,22.44
2018-07-01T13:47:33.504Z,22.57
2018-07-01T13:49:26.224Z,22.93
2018-07-01T13:50:26.166Z,22.97
2018-07-01T13:52:18.949Z,23.04
2018-07-01T13:53:18.880Z,22.91
2018-07-01T13:55:11.677Z,22.78
2018-07-01T13:56:11.609Z,22.82
2018-07-01T13:58:04.465Z,22.94
2018-07-01T13:59:04.348Z,22.99
2018-07-01T14:00:57.144Z,23.07
2018-07-01T14:01:57.067Z,22.97
2018-07-01T14:03:49.880Z,23.06
2018-07-01T14:04:49.810Z,23.14
2018-07-01T14:06:42.663Z,23.15
2018-07-01T14:07:42.522Z,23.15
2018-07-01T14:09:35.414Z,22.91
2018-07-01T14:10:35.261Z,22.89
2018-07-01T14:12:28.060Z,22.79
2018-07-01T14:13:27.988Z,22.59
2018-07-01T14:15:20.779Z,22.64
2018-07-01T14:16:20.703Z,22.70
2018-07-01T14:18:13.502Z,22.61
2018-07-01T14:19:13.429Z,22.44
2018-07-01T14:21:06.246Z,22.42
2018-07-01T14:22:06.189Z,22.49
2018-07-01T14:23:58.983Z,22.49
2018-07-01T14:24:58.897Z,22.38
2018-07-01T14:26:51.673Z,22.29
2018-07-01T14:27:51.609Z,22.17
2018-07-01T14:29:44.403Z,21.91
2018-07-01T14:30:44.316Z,21.94
2018-07-01T14:32:37.111Z,22.14
2018-07-01T14:33:37.033Z,22.24
2018-07-01T14:35:29.816Z,22.56
2018-07-01T14:36:29.751Z,22.74
2018-07-01T14:38:22.561Z,23.07
2018-07-01T14:39:22.473Z,23.23
2018-07-01T14:41:15.265Z,23.38
2018-07-01T14:42:15.202Z,23.26
2018-07-01T14:44:07.992Z,23.25
2018-07-01T14:45:07.942Z,23.00
2018-07-01T14:47:00.724Z,22.86
2018-07-01T14:48:00.650Z,22.81
2018-07-01T14:49:53.447Z,22.74
2018-07-01T14:50:53.374Z,22.69
2018-07-01T14:52:46.211Z,22.39
2018-07-01T14:53:46.115Z,22.27
2018-07-01T14:55:38.890Z,22.41
2018-07-01T14:56:38.821Z,22.49
2018-07-01T14:58:31.624Z,22.51
2018-07-01T14:59:31.547Z,22.56
2018-07-01T15:01:24.387Z,22.61
2018-07-01T15:02:24.257Z,22.63
2018-07-01T15:04:17.101Z,22.49
2018-07-01T15:05:17.012Z,22.67
2018-07-01T15:07:09.792Z,22.96
2018-07-01T15:08:09.729Z,23.07
2018-07-01T15:10:02.567Z,22.86
2018-07-01T15:11:02.542Z,22.81
2018-07-01T15:12:55.275Z,22.79
2018-07-01T15:13:55.205Z,22.75
2018-07-01T15:15:47.990Z,22.57
2018-07-01T15:16:47.914Z,22.41
2018-07-01T15:18:40.718Z,22.29
2018-07-01T15:19:40.648Z,22.29
2018-07-01T15:21:33.412Z,22.31
2018-07-01T15:22:33.343Z,22.27
2018-07-01T15:24:26.165Z,22.36
2018-07-01T15:25:26.064Z,22.19
2018-07-01T15:27:18.867Z,22.21
2018-07-01T15:28:18.795Z,22.19
2018-07-01T15:30:11.601Z,22.12
2018-07-01T15:31:11.526Z,22.15
2018-07-01T15:33:04.364Z,22.19
2018-07-01T15:34:04.288Z,22.06
2018-07-01T15:35:57.118Z,22.05
2018-07-01T15:36:57.026Z,21.90
2018-07-01T15:38:49.868Z,21.86
2018-07-01T15:39:49.768Z,21.96
2018-07-01T15:41:42.546Z,21.91
2018-07-01T15:42:42.488Z,21.89
2018-07-01T15:44:35.263Z,21.86
2018-07-01T15:45:35.186Z,21.89
2018-07-01T15:47:27.979Z,21.99
2018-07-01T15:48:27.911Z,22.06
2018-07-01T15:50:20.714Z,22.17
2018-07-01T15:51:20.637Z,22.05
2018-07-01T15:53:13.408Z,22.21
2018-07-01T15:54:13.356Z,22.30
2018-07-01T15:56:06.152Z,22.41
2018-07-01T15:57:06.088Z,22.51
2018-07-01T15:58:58.860Z,22.42
2018-07-01T15:59:58.802Z,22.52
2018-07-01T16:01:51.593Z,22.56
2018-07-01T16:02:51.516Z,22.57
2018-07-01T16:04:44.316Z,22.30
2018-07-01T16:05:44.243Z,22.20
2018-07-01T16:07:37.040Z,21.98
2018-07-01T16:08:36.977Z,21.98
2018-07-01T16:10:29.772Z,21.99
2018-07-01T16:11:29.677Z,21.93
2018-07-01T16:13:22.474Z,21.81
2018-07-01T16:14:22.404Z,21.90
2018-07-01T16:16:15.206Z,21.86
2018-07-01T16:17:15.135Z,21.98
2018-07-01T16:19:07.918Z,21.89
2018-07-01T16:20:07.871Z,21.82
2018-07-01T16:22:00.649Z,21.89
2018-07-01T16:23:00.570Z,21.90
2018-07-01T16:24:53.367Z,21.98
2018-07-01T16:25:53.291Z,21.90
2018-07-01T16:27:46.092Z,21.90
2018-07-01T16:28:46.048Z,21.96
2018-07-01T16:30:38.809Z,21.99
2018-07-01T16:31:38.736Z,21.91
2018-07-01T16:33:31.527Z,21.90
2018-07-01T16:34:31.464Z,21.91
2018-07-01T16:36:24.260Z,21.86
2018-07-01T16:37:24.192Z,21.91
2018-07-01T16:39:16.970Z,21.74
2018-07-01T16:40:16.909Z,21.86
2018-07-01T16:42:09.726Z,21.68
2018-07-01T16:43:09.645Z,21.66
2018-07-01T16:45:02.462Z,21.75
2018-07-01T16:46:02.399Z,21.67
2018-07-01T16:47:55.255Z,21.61
2018-07-01T16:48:55.173Z,21.61
2018-07-01T16:50:47.966Z,21.59
2018-07-01T16:51:47.880Z,21.56
2018-07-01T16:53:40.667Z,21.61
2018-07-01T16:54:40.606Z,21.45
2018-07-01T16:56:33.396Z,21.59
2018-07-01T16:57:33.330Z,21.52
2018-07-01T16:59:26.103Z,21.48
2018-07-01T17:00:26.036Z,21.40
2018-07-01T17:02:18.826Z,21.31
2018-07-01T17:03:18.747Z,21.31
2018-07-01T17:05:11.622Z,21.24
2018-07-01T17:06:11.490Z,21.26
2018-07-01T17:08:04.306Z,21.28
2018-07-01T17:09:04.227Z,21.26
2018-07-01T17:10:57.114Z,21.12
2018-07-01T17:11:56.990Z,21.06
2018-07-01T17:13:49.844Z,20.85
2018-07-01T17:14:49.757Z,20.91
2018-07-01T17:16:42.611Z,21.03
2018-07-01T17:17:42.482Z,21.01
2018-07-01T17:19:35.262Z,20.88
2018-07-01T17:20:35.200Z,20.90
2018-07-01T17:22:28.063Z,20.97
2018-07-01T17:23:27.949Z,20.91
2018-07-01T17:25:20.717Z,20.85
2018-07-01T17:26:20.665Z,20.87
2018-07-01T17:28:13.494Z,20.76
2018-07-01T17:29:13.411Z,20.81
2018-07-01T17:31:06.204Z,20.78
2018-07-01T17:32:06.142Z,20.66
2018-07-01T17:33:58.944Z,20.76
2018-07-01T17:34:58.959Z,20.78
2018-07-01T17:36:51.714Z,20.69
2018-07-01T17:37:51.667Z,20.64
2018-07-01T17:39:44.423Z,20.68
2018-07-01T17:40:44.355Z,20.58
2018-07-01T17:42:37.158Z,20.60
2018-07-01T17:43:37.104Z,20.68
2018-07-01T17:45:29.948Z,20.71
2018-07-01T17:46:29.910Z,20.75
2018-07-01T17:48:22.714Z,20.78
2018-07-01T17:49:22.594Z,20.83
2018-07-01T17:51:15.384Z,20.71
2018-07-01T17:52:15.312Z,20.88
2018-07-01T17:54:08.113Z,21.21
2018-07-01T17:55:08.028Z,21.27
2018-07-01T17:57:00.842Z,20.85
2018-07-01T17:58:00.751Z,20.82
2018-07-01T17:59:53.553Z,20.72
2018-07-01T18:00:53.479Z,20.69
2018-07-01T18:02:46.295Z,20.66
2018-07-01T18:03:46.212Z,20.61
2018-07-01T18:05:39.007Z,20.51
2018-07-01T18:06:38.944Z,20.42
2018-07-01T18:08:31.762Z,20.54
2018-07-01T18:09:31.677Z,20.56
2018-07-01T18:11:24.574Z,20.61
2018-07-01T18:12:24.454Z,20.51
2018-07-01T18:14:17.261Z,20.66
2018-07-01T18:15:17.173Z,20.63
2018-07-01T18:17:09.962Z,20.58
2018-07-01T18:18:09.881Z,20.61
2018-07-01T18:20:02.702Z,20.69
2018-07-01T18:21:02.599Z,20.73
2018-07-01T18:23:27.416Z,20.98
2018-07-01T18:24:27.526Z,21.06
2018-07-01T18:25:48.113Z,20.94
2018-07-01T18:26:48.043Z,20.98
2018-07-01T18:28:48.655Z,21.45
2018-07-01T18:29:40.808Z,21.75
2018-07-01T18:31:33.710Z,21.45